Time;durP1;ratioP1;P1;durP2;ratioP2;P2;SDS_P1;SDS_P2;PMS_P1;PMS_P2;Temp;Humidity;BMP_temperature;BMP_pressure;BME280_temperature;BME280_humidity;BME280_pressure;Samples;Min_cycle;Max_cycle;Signal;HPM_P1;HPM_P2
2020/12/28 00:01:01;;;;;;;87.08;38.20;;;;;;;-2.36;74.38;95359.95;1835126;77;25757;-85
2020/12/28 00:03:28;;;;;;;82.37;35.23;;;;;;;-2.36;74.34;95347.56;1817094;77;25800;-85
2020/12/28 00:05:56;;;;;;;90.45;39.18;;;;;;;-2.34;74.53;95360.59;1817385;77;27727;-84
2020/12/28 00:08:23;;;;;;;101.20;39.48;;;;;;;-2.30;74.59;95357.41;1816030;77;25708;-85
2020/12/28 00:10:50;;;;;;;76.65;33.70;;;;;;;-2.20;74.75;95365.06;1820076;77;26335;-86
2020/12/28 00:13:18;;;;;;;66.70;27.60;;;;;;;-2.15;74.88;95362.68;1841915;77;25844;-85
2020/12/28 00:15:45;;;;;;;68.10;28.92;;;;;;;-2.06;74.99;95349.71;1836590;77;25872;-84
2020/12/28 00:18:12;;;;;;;74.17;29.30;;;;;;;-2.03;74.84;95340.56;1845261;77;27570;-83
2020/12/28 00:20:40;;;;;;;70.78;29.15;;;;;;;-2.00;74.92;95341.03;1820586;77;26002;-85
2020/12/28 00:23:07;;;;;;;64.50;29.37;;;;;;;-1.98;74.81;95345.63;1817364;77;25724;-85
2020/12/28 00:25:34;;;;;;;63.05;28.73;;;;;;;-1.94;74.89;95354.03;1818173;77;25691;-85
2020/12/28 00:28:02;;;;;;;69.42;27.75;;;;;;;-1.90;74.89;95371.14;1818067;77;26264;-83
2020/12/28 00:30:29;;;;;;;67.35;29.02;;;;;;;-1.85;74.95;95368.28;1813010;77;27546;-82
2020/12/28 00:32:56;;;;;;;62.85;28.15;;;;;;;-1.78;75.07;95370.99;1809426;77;25916;-82
2020/12/28 00:35:23;;;;;;;68.57;30.35;;;;;;;-1.71;75.15;95372.41;1804134;77;25786;-86
2020/12/28 00:37:51;;;;;;;67.82;29.00;;;;;;;-1.64;75.12;95355.61;1822109;77;25761;-85
2020/12/28 00:40:18;;;;;;;79.47;36.38;;;;;;;-1.60;74.95;95356.06;1816870;77;25803;-84
2020/12/28 00:42:45;;;;;;;67.60;31.12;;;;;;;-1.60;75.03;95340.19;1809622;77;28386;-82
2020/12/28 00:45:13;;;;;;;71.97;30.97;;;;;;;-1.54;75.12;95344.72;1808927;77;25798;-82
2020/12/28 00:47:40;;;;;;;135.10;42.70;;;;;;;-1.55;75.08;95329.84;1808164;79;25707;-81
2020/12/28 00:50:07;;;;;;;184.00;57.40;;;;;;;-1.62;75.00;95331.61;1778045;80;25767;-82
2020/12/28 00:52:35;;;;;;;102.65;38.23;;;;;;;-1.63;75.03;95322.86;1757897;80;25772;-82
2020/12/28 00:55:03;;;;;;;115.92;39.50;;;;;;;-1.55;75.25;95325.88;1757233;80;27487;-83
2020/12/28 00:57:30;;;;;;;95.97;33.92;;;;;;;-1.50;75.21;95314.24;1746238;81;25815;-85
2020/12/28 00:59:57;;;;;;;69.80;26.97;;;;;;;-1.54;75.14;95311.64;1800419;77;25753;-82
2020/12/28 01:02:25;;;;;;;67.67;27.55;;;;;;;-1.56;75.14;95311.01;1808664;77;25979;-84
2020/12/28 01:04:52;;;;;;;59.65;25.65;;;;;;;-1.55;75.39;95316.62;1804602;79;25929;-83
2020/12/28 01:07:20;;;;;;;52.38;23.10;;;;;;;-1.54;75.40;95314.30;1823120;77;28497;-83
2020/12/28 01:09:48;;;;;;;55.90;23.60;;;;;;;-1.52;75.54;95309.64;1792726;79;25690;-85
2020/12/28 01:12:15;;;;;;;34.63;13.98;;;;;;;-1.50;75.51;95299.19;1831821;77;25741;-85
2020/12/28 01:14:42;;;;;;;49.70;19.15;;;;;;;-1.47;75.55;95300.14;1807218;77;26298;-82
2020/12/28 01:17:10;;;;;;;39.08;16.93;;;;;;;-1.28;76.12;95300.00;1819227;77;25775;-82
2020/12/28 01:19:37;;;;;;;18.48;8.63;;;;;;;-1.20;76.11;95293.75;1842675;77;27520;-81
2020/12/28 01:22:04;;;;;;;7.40;3.17;;;;;;;-1.00;76.51;95300.56;1831843;77;25680;-83
2020/12/28 01:24:32;;;;;;;6.65;2.37;;;;;;;-0.66;77.12;95286.05;1815327;77;25755;-81
2020/12/28 01:26:59;;;;;;;2.47;1.45;;;;;;;-0.26;77.37;95281.00;1838968;77;26498;-81
2020/12/28 01:29:26;;;;;;;2.40;1.62;;;;;;;0.17;77.59;95271.79;1823859;77;25754;-81
2020/12/28 01:31:54;;;;;;;3.27;1.30;;;;;;;0.54;77.41;95265.66;1842570;77;28534;-82
2020/12/28 01:34:22;;;;;;;3.60;1.57;;;;;;;0.80;77.10;95252.94;1842525;77;26235;-81
2020/12/28 01:36:50;;;;;;;3.37;1.80;;;;;;;1.07;76.99;95234.16;1842625;77;25627;-81
2020/12/28 01:39:17;;;;;;;2.35;1.42;;;;;;;1.25;76.78;95224.72;1842575;77;25630;-81
2020/12/28 01:41:45;;;;;;;2.55;1.50;;;;;;;1.45;76.67;95240.93;1809792;77;25796;-81
2020/12/28 01:44:12;;;;;;;2.25;1.10;;;;;;;1.59;76.34;95236.41;1837604;77;27581;-81
2020/12/28 01:46:40;;;;;;;2.02;1.20;;;;;;;1.72;76.17;95242.20;1825558;77;25650;-81
2020/12/28 01:49:07;;;;;;;2.00;1.20;;;;;;;1.94;76.14;95229.44;1802487;77;25897;-85
2020/12/28 01:51:34;;;;;;;1.05;0.72;;;;;;;2.08;75.90;95231.02;1793596;79;25827;-82
2020/12/28 01:54:03;;;;;;;1.37;1.22;;;;;;;2.19;75.71;95215.72;1793909;77;25818;-81
2020/12/28 01:56:34;;;;;;;2.30;0.90;;;;;;;2.28;75.54;95217.13;1801486;77;27533;-82
2020/12/28 01:59:02;;;;;;;2.08;1.15;;;;;;;2.35;75.37;95219.23;1790362;79;25697;-82
2020/12/28 02:01:34;;;;;;;3.10;1.25;;;;;;;2.46;75.26;95217.21;1819982;77;25727;-82
2020/12/28 02:04:02;;;;;;;2.45;0.98;;;;;;;2.56;75.12;95208.75;1820528;77;25684;-82
2020/12/28 02:06:29;;;;;;;1.15;0.70;;;;;;;2.63;74.95;95205.55;1818652;77;25775;-82
2020/12/28 02:08:57;;;;;;;1.90;0.88;;;;;;;2.73;74.83;95199.73;1810236;77;27525;-83
2020/12/28 02:11:24;;;;;;;1.65;1.10;;;;;;;2.80;74.66;95189.83;1836990;77;25731;-82
2020/12/28 02:13:51;;;;;;;2.80;1.00;;;;;;;2.85;74.49;95180.16;1825853;77;25738;-81
2020/12/28 02:16:19;;;;;;;2.47;0.95;;;;;;;2.90;74.35;95204.81;1840624;77;25749;-80
2020/12/28 02:18:46;;;;;;;2.98;1.20;;;;;;;2.95;74.19;95211.65;1843038;77;25801;-80
2020/12/28 02:21:13;;;;;;;3.27;1.50;;;;;;;2.99;74.08;95210.19;1842714;77;27523;-85
2020/12/28 02:23:44;;;;;;;4.00;1.55;;;;;;;2.99;73.89;95210.70;1833935;77;25827;-81
2020/12/28 02:26:12;;;;;;;2.58;1.40;;;;;;;2.95;73.75;95190.33;1798115;77;25635;-81
2020/12/28 02:28:39;;;;;;;1.95;1.20;;;;;;;2.91;73.64;95182.46;1836093;77;25714;-81
2020/12/28 02:31:06;;;;;;;1.30;0.88;;;;;;;2.89;73.61;95178.70;1826373;77;25891;-81
2020/12/28 02:33:34;;;;;;;1.30;0.78;;;;;;;2.88;73.60;95182.41;1795751;79;26430;-83
2020/12/28 02:36:01;;;;;;;0.85;0.68;;;;;;;2.89;73.57;95187.22;1774417;79;25446;-81
2020/12/28 02:38:28;;;;;;;1.75;1.05;;;;;;;2.89;73.54;95176.56;1795666;79;25894;-86
2020/12/28 02:40:56;;;;;;;2.00;0.93;;;;;;;2.90;73.50;95172.83;1765199;79;27220;-81
2020/12/28 02:43:23;;;;;;;2.00;0.85;;;;;;;2.93;73.48;95171.59;1763890;79;25774;-83
2020/12/28 02:45:50;;;;;;;1.40;0.70;;;;;;;2.93;73.42;95180.40;1773308;79;27570;-80
2020/12/28 02:48:18;;;;;;;1.12;0.72;;;;;;;2.94;73.40;95170.04;1779264;79;25359;-84
2020/12/28 02:50:45;;;;;;;2.00;1.00;;;;;;;2.96;73.35;95163.16;1779593;79;25719;-86
2020/12/28 02:53:12;;;;;;;1.80;1.10;;;;;;;2.97;73.27;95162.95;1769346;79;25559;-84
2020/12/28 02:55:39;;;;;;;3.05;0.98;;;;;;;3.01;73.23;95156.67;1768131;79;25757;-83
2020/12/28 02:58:07;;;;;;;2.30;0.90;;;;;;;3.02;73.19;95148.44;1785245;79;28465;-87
2020/12/28 03:00:34;;;;;;;2.40;0.88;;;;;;;3.02;73.12;95149.77;1784165;79;25741;-80
2020/12/28 03:03:02;;;;;;;3.62;1.10;;;;;;;3.03;73.09;95146.58;1765323;79;25796;-80
2020/12/28 03:05:29;;;;;;;1.07;0.72;;;;;;;3.03;73.07;95144.73;1763878;79;25810;-80
2020/12/28 03:07:57;;;;;;;1.57;0.90;;;;;;;3.06;73.05;95131.49;1766157;79;25856;-80
2020/12/28 03:10:24;;;;;;;0.90;0.50;;;;;;;3.09;73.04;95131.06;1770662;79;28441;-82
2020/12/28 03:12:51;;;;;;;1.02;0.53;;;;;;;3.04;72.82;95117.05;1763661;79;25707;-85
2020/12/28 03:15:19;;;;;;;0.80;0.30;;;;;;;3.02;72.88;95104.45;1770168;79;25855;-87
2020/12/28 03:17:46;;;;;;;0.82;0.37;;;;;;;3.07;72.88;95121.13;1770819;79;25794;-86
2020/12/28 03:20:13;;;;;;;0.60;0.30;;;;;;;3.13;72.90;95125.08;1775459;79;25902;-82
2020/12/28 03:22:41;;;;;;;0.78;0.30;;;;;;;3.21;72.81;95128.78;1769849;79;28331;-85
2020/12/28 03:25:08;;;;;;;0.60;0.60;;;;;;;3.23;72.72;95138.71;1767616;79;25735;-82
2020/12/28 03:27:35;;;;;;;0.50;0.37;;;;;;;3.24;72.53;95139.02;1780695;78;25802;-83
2020/12/28 03:30:03;;;;;;;1.50;0.85;;;;;;;3.14;72.25;95136.02;1764014;79;26684;-80
2020/12/28 03:32:30;;;;;;;1.75;1.02;;;;;;;3.09;72.35;95131.06;1784163;78;25874;-80
2020/12/28 03:34:58;;;;;;;2.17;1.10;;;;;;;3.05;72.39;95122.68;1817497;77;27511;-80
2020/12/28 03:37:25;;;;;;;2.27;0.93;;;;;;;2.97;72.28;95110.16;1811711;77;25757;-84
2020/12/28 03:39:52;;;;;;;2.02;1.02;;;;;;;2.90;72.26;95116.88;1828673;77;25734;-81
2020/12/28 03:42:20;;;;;;;5.97;1.15;;;;;;;2.86;72.40;95118.36;1821224;77;25806;-82
2020/12/28 03:44:47;;;;;;;1.75;0.60;;;;;;;2.88;72.55;95121.63;1814763;77;25341;-83
2020/12/28 03:47:14;;;;;;;1.02;0.30;;;;;;;2.96;72.65;95124.00;1830089;77;26897;-80
2020/12/28 03:49:42;;;;;;;0.30;0.20;;;;;;;3.03;72.64;95116.75;1818198;78;25873;-80
2020/12/28 03:52:09;;;;;;;0.50;0.45;;;;;;;3.06;72.56;95109.66;1812260;77;25737;-84
2020/12/28 03:54:36;;;;;;;0.40;0.30;;;;;;;3.08;72.50;95110.25;1827695;77;26499;-84
2020/12/28 03:57:04;;;;;;;0.50;0.30;;;;;;;3.10;72.44;95118.85;1831648;77;25727;-84
2020/12/28 03:59:31;;;;;;;1.20;0.60;;;;;;;3.12;72.41;95099.45;1818183;77;27582;-83
2020/12/28 04:01:58;;;;;;;1.02;0.65;;;;;;;3.15;72.35;95108.32;1818212;77;25874;-82
2020/12/28 04:04:26;;;;;;;0.45;0.30;;;;;;;3.15;72.30;95100.33;1818101;77;25797;-86
2020/12/28 04:06:53;;;;;;;0.62;0.50;;;;;;;3.20;72.31;95096.49;1814469;77;25793;-80
2020/12/28 04:09:20;;;;;;;0.50;0.50;;;;;;;3.24;72.23;95080.88;1816633;77;25817;-81
2020/12/28 04:11:48;;;;;;;1.98;1.10;;;;;;;3.32;72.18;95081.08;1840428;77;27458;-81
2020/12/28 04:14:15;;;;;;;1.05;0.68;;;;;;;3.35;72.15;95094.80;1818128;77;25703;-84
2020/12/28 04:16:42;;;;;;;3.22;1.05;;;;;;;3.44;72.11;95088.63;1818187;77;25709;-79
2020/12/28 04:19:09;;;;;;;1.40;0.70;;;;;;;3.51;71.97;95090.17;1818244;77;25722;-80
2020/12/28 04:21:37;;;;;;;1.00;0.30;;;;;;;3.54;71.84;95090.25;1818168;77;25296;-82
2020/12/28 04:24:04;;;;;;;0.60;0.30;;;;;;;3.59;71.82;95090.41;1837278;77;28516;-87
2020/12/28 04:26:31;;;;;;;1.37;0.30;;;;;;;3.65;71.78;95096.16;1827739;77;26216;-80
2020/12/28 04:28:59;;;;;;;0.35;0.20;;;;;;;3.72;71.66;95088.09;1842276;77;25316;-88
2020/12/28 04:31:26;;;;;;;0.50;0.25;;;;;;;3.77;71.57;95087.70;1846750;77;25767;-87
2020/12/28 04:33:53;;;;;;;0.20;0.20;;;;;;;3.82;71.51;95095.86;1824919;77;25690;-80
2020/12/28 04:36:20;;;;;;;0.15;0.15;;;;;;;3.84;71.39;95100.45;1811438;77;28537;-84
2020/12/28 04:38:48;;;;;;;0.30;0.30;;;;;;;3.86;71.29;95094.38;1823817;77;25706;-86
2020/12/28 04:41:15;;;;;;;0.35;0.30;;;;;;;3.85;71.21;95098.08;1829932;77;25734;-81
2020/12/28 04:43:42;;;;;;;1.05;0.40;;;;;;;3.84;71.22;95093.78;1818998;77;26317;-80
2020/12/28 04:46:10;;;;;;;0.40;0.30;;;;;;;3.86;71.09;95081.03;1819832;77;25724;-82
2020/12/28 04:48:39;;;;;;;1.05;0.60;;;;;;;3.85;71.10;95078.59;1812227;77;27570;-83
2020/12/28 04:51:06;;;;;;;0.45;0.40;;;;;;;3.85;71.05;95090.08;1809334;77;25719;-82
2020/12/28 04:53:35;;;;;;;0.40;0.40;;;;;;;3.90;71.17;95096.05;1837936;77;25672;-82
2020/12/28 04:56:02;;;;;;;0.47;0.40;;;;;;;3.98;71.23;95084.53;1841628;77;25763;-85
2020/12/28 04:58:30;;;;;;;0.82;0.70;;;;;;;4.04;71.10;95080.67;1812782;77;26296;-87
2020/12/28 05:01:01;;;;;;;1.37;0.75;;;;;;;4.07;71.00;95072.22;1811147;77;28789;-80
2020/12/28 05:03:30;;;;;;;1.35;0.65;;;;;;;4.06;70.93;95086.09;1813356;77;26325;-87
2020/12/28 05:05:57;;;;;;;0.40;0.40;;;;;;;4.07;70.83;95080.23;1814351;77;25723;-81
2020/12/28 05:08:24;;;;;;;1.25;0.70;;;;;;;4.09;70.81;95082.97;1828374;77;25758;-80
2020/12/28 05:10:52;;;;;;;0.40;0.40;;;;;;;4.11;70.79;95070.70;1811945;77;25732;-83
2020/12/28 05:13:20;;;;;;;0.55;0.50;;;;;;;4.12;70.78;95078.48;1814642;78;27530;-79
2020/12/28 05:15:57;;;;;;;0.62;0.40;;;;;;;4.15;70.76;95057.20;1809457;77;26232;-86
2020/12/28 05:18:25;;;;;;;2.05;0.57;;;;;;;4.17;70.76;95060.46;1831790;77;25693;-87
2020/12/28 05:20:52;;;;;;;0.95;0.60;;;;;;;4.19;70.68;95067.73;1792186;77;26658;-80
2020/12/28 05:23:20;;;;;;;0.93;0.70;;;;;;;4.24;70.68;95059.83;1812246;77;25824;-88
2020/12/28 05:25:50;;;;;;;2.15;0.90;;;;;;;4.27;70.57;95058.04;1830943;77;27494;-80
2020/12/28 05:28:28;;;;;;;1.55;0.70;;;;;;;4.26;70.51;95054.55;1837925;77;25776;-81
2020/12/28 05:30:59;;;;;;;1.98;1.00;;;;;;;4.22;70.47;95052.07;1824921;77;25813;-81
2020/12/28 05:33:34;;;;;;;1.00;0.70;;;;;;;4.18;70.51;95044.21;1839015;77;25771;-80
2020/12/28 05:36:02;;;;;;;1.70;1.02;;;;;;;4.16;70.55;95052.16;1830800;77;25784;-86
2020/12/28 05:38:33;;;;;;;1.32;0.60;;;;;;;4.15;70.58;95057.20;1825453;77;27537;-80
2020/12/28 05:41:05;;;;;;;0.80;0.60;;;;;;;4.15;70.62;95057.20;1831654;77;25762;-87
2020/12/28 05:43:32;;;;;;;0.72;0.70;;;;;;;4.14;70.56;95048.89;1826494;77;25667;-81
2020/12/28 05:46:00;;;;;;;0.93;0.80;;;;;;;4.13;70.56;95040.59;1818099;77;25809;-84
2020/12/28 05:48:27;;;;;;;0.90;0.72;;;;;;;4.09;70.58;95034.09;1818211;77;25287;-84
2020/12/28 05:50:58;;;;;;;1.82;0.98;;;;;;;4.14;70.65;95032.88;1841657;77;27530;-80
2020/12/28 05:53:26;;;;;;;2.80;1.27;;;;;;;4.17;70.62;95028.42;1818082;77;25744;-84
2020/12/28 05:55:54;;;;;;;1.65;1.10;;;;;;;4.20;70.61;95030.64;1841705;77;25553;-80
2020/12/28 05:58:22;;;;;;;0.62;0.53;;;;;;;4.25;70.54;95022.73;1813222;77;25741;-81
2020/12/28 06:00:51;;;;;;;0.72;0.65;;;;;;;4.25;70.44;95024.07;1810724;77;25807;-82
2020/12/28 06:03:25;;;;;;;1.92;0.95;;;;;;;4.28;70.49;95027.62;1818259;78;27488;-83
2020/12/28 06:05:54;;;;;;;4.55;2.00;;;;;;;4.32;70.47;95036.81;1828558;77;25635;-82
2020/12/28 06:08:22;;;;;;;3.95;2.45;;;;;;;4.31;70.43;95032.52;1813405;77;25713;-87
2020/12/28 06:10:49;;;;;;;1.30;1.20;;;;;;;4.33;70.44;95025.09;1811013;77;25746;-85
2020/12/28 06:13:24;;;;;;;2.60;1.77;;;;;;;4.28;70.28;95019.61;1812745;77;25875;-83
2020/12/28 06:16:04;;;;;;;2.40;1.30;;;;;;;4.22;70.29;95005.86;1833099;77;28508;-81
2020/12/28 06:18:32;;;;;;;2.17;1.27;;;;;;;4.15;70.34;94999.27;1828960;77;25783;-81
2020/12/28 06:21:03;;;;;;;2.40;1.70;;;;;;;4.13;70.49;94984.52;1811241;77;25878;-82
2020/12/28 06:23:30;;;;;;;1.35;1.20;;;;;;;4.14;70.51;94983.48;1809166;77;25809;-83
2020/12/28 06:25:57;;;;;;;2.98;1.90;;;;;;;4.14;70.57;94978.14;1818287;77;25748;-82
2020/12/28 06:28:26;;;;;;;2.10;1.72;;;;;;;4.17;70.60;94969.67;1841695;77;28548;-81
2020/12/28 06:31:08;;;;;;;3.92;2.05;;;;;;;4.16;70.58;94965.38;1813393;77;25776;-80
2020/12/28 06:33:40;;;;;;;8.08;3.42;;;;;;;4.14;70.50;94961.59;1806740;77;25771;-89
2020/12/28 06:36:18;;;;;;;5.90;3.00;;;;;;;4.08;70.50;94975.07;1803655;77;26260;-90
2020/12/28 06:39:00;;;;;;;7.47;3.98;;;;;;;4.02;70.44;94978.64;1808450;77;25741;-87
2020/12/28 06:41:29;;;;;;;;;;;;;;;3.95;70.43;94984.91;1812100;77;27562;-85
2020/12/28 06:44:02;;;;;;;12.80;4.97;;;;;;;3.86;70.55;94952.93;1810217;77;25850;-89
2020/12/28 06:46:31;;;;;;;9.98;4.72;;;;;;;3.82;70.63;94926.41;1818824;77;25632;-82
2020/12/28 06:48:59;;;;;;;7.95;4.00;;;;;;;3.81;70.74;94916.77;1806887;77;25774;-88
2020/12/28 06:51:27;;;;;;;6.78;4.45;;;;;;;3.84;70.82;94917.65;1821885;77;25679;-86
2020/12/28 06:53:55;;;;;;;6.42;4.17;;;;;;;3.90;70.87;94917.23;1831033;77;27541;-84
2020/12/28 06:56:27;;;;;;;5.83;3.72;;;;;;;3.96;70.85;94909.14;1809262;77;25696;-82
2020/12/28 06:58:59;;;;;;;3.95;2.42;;;;;;;3.92;70.69;94901.81;1809510;77;25679;-87
2020/12/28 07:01:28;;;;;;;10.15;3.67;;;;;;;3.77;70.47;94901.44;1809549;77;26545;-80
2020/12/28 07:03:56;;;;;;;4.37;2.87;;;;;;;3.68;70.67;94888.95;1809213;77;25819;-84
2020/12/28 07:06:24;;;;;;;3.05;1.90;;;;;;;3.67;70.92;94882.00;1803886;77;27530;-80
2020/12/28 07:08:51;;;;;;;5.85;2.33;;;;;;;3.76;71.06;94873.13;1803397;77;26321;-83
2020/12/28 07:11:19;;;;;;;4.87;2.45;;;;;;;3.88;71.08;94856.60;1806766;77;25712;-83
2020/12/28 07:13:47;;;;;;;4.05;2.12;;;;;;;3.97;71.03;94866.72;1805900;77;26531;-84
2020/12/28 07:16:15;;;;;;;7.90;3.15;;;;;;;4.02;70.92;94863.86;1816433;77;25841;-84
2020/12/28 07:18:42;;;;;;;5.70;3.02;;;;;;;4.10;70.88;94887.56;1841338;77;27580;-85
2020/12/28 07:21:10;;;;;;;4.67;2.70;;;;;;;4.17;70.79;94879.71;1807495;79;26340;-80
2020/12/28 07:23:37;;;;;;;5.33;2.65;;;;;;;4.23;70.67;94888.11;1779757;80;25761;-82
2020/12/28 07:26:10;;;;;;;6.58;2.80;;;;;;;4.34;70.59;94889.98;1755540;80;26536;-82
2020/12/28 07:28:43;;;;;;;2.20;1.95;;;;;;;4.41;70.47;94883.17;1777287;80;43598;-81
2020/12/28 07:31:10;;;;;;;3.75;2.35;;;;;;;4.45;70.40;94874.99;1755508;80;27498;-81
2020/12/28 07:33:47;;;;;;;6.55;3.90;;;;;;;4.53;70.23;94870.61;1765316;80;25802;-82
2020/12/28 07:36:17;;;;;;;5.53;3.30;;;;;;;4.56;70.16;94875.49;1770935;79;25759;-83
2020/12/28 07:38:47;;;;;;;5.25;2.65;;;;;;;4.61;70.14;94866.23;1811906;77;26374;-91
2020/12/28 07:41:21;;;;;;;5.87;2.98;;;;;;;4.67;70.04;94850.61;1800691;77;26478;-87
2020/12/28 07:43:56;;;;;;;2.87;1.95;;;;;;;4.77;70.03;94839.83;1812667;77;28423;-85
2020/12/28 07:46:47;;;;;;;3.85;2.30;;;;;;;4.88;69.92;94837.64;1820227;77;25872;-82
2020/12/28 07:49:25;;;;;;;2.47;2.20;;;;;;;4.97;69.76;94828.98;1803291;77;25779;-84
2020/12/28 07:52:12;;;;;;;2.25;1.90;;;;;;;5.08;69.63;94813.94;1803455;77;26382;-83
2020/12/28 07:54:53;;;;;;;2.62;2.20;;;;;;;5.17;69.46;94797.81;1796714;77;25691;-82
2020/12/28 07:57:46;;;;;;;3.10;2.10;;;;;;;5.24;69.40;94773.05;1809125;77;27504;-83
2020/12/28 08:00:17;;;;;;;8.88;4.12;;;;;;;5.35;69.22;94760.13;1831408;77;26623;-83
2020/12/28 08:03:02;;;;;;;4.50;2.63;;;;;;;5.41;68.95;94769.88;1774906;77;25709;-82
2020/12/28 08:05:34;;;;;;;7.90;4.67;;;;;;;5.42;68.87;94741.26;1805537;77;26545;-84
2020/12/28 08:08:02;;;;;;;4.30;2.75;;;;;;;5.52;68.68;94762.00;1746817;79;25942;-83
2020/12/28 08:10:29;;;;;;;2.70;1.90;;;;;;;5.53;68.58;94758.28;1814878;77;27385;-85
2020/12/28 08:12:59;;;;;;;6.20;3.10;;;;;;;5.58;68.49;94757.00;1794099;79;26295;-81
2020/12/28 08:15:33;;;;;;;4.17;3.20;;;;;;;5.64;68.47;94753.36;1827394;77;26111;-86
2020/12/28 08:18:10;;;;;;;2.83;1.67;;;;;;;5.68;68.16;94761.16;1837208;77;25785;-84
2020/12/28 08:20:40;;;;;;;2.25;1.40;;;;;;;5.74;68.05;94757.00;1827695;77;25762;-85
2020/12/28 08:23:08;;;;;;;1.22;1.12;;;;;;;5.82;67.93;94749.06;1825336;77;27570;-83
2020/12/28 08:25:36;;;;;;;1.40;1.30;;;;;;;5.91;67.79;94748.17;1842114;77;25784;-84
2020/12/28 08:28:04;;;;;;;1.65;1.50;;;;;;;5.99;67.73;94735.16;1838453;77;25717;-85
2020/12/28 08:30:32;;;;;;;3.02;1.80;;;;;;;6.12;67.63;94728.63;1836125;77;26512;-86
2020/12/28 08:33:01;;;;;;;2.65;2.02;;;;;;;6.25;67.56;94722.09;1843288;77;25821;-81
2020/12/28 08:35:30;;;;;;;2.75;1.87;;;;;;;6.35;67.46;94720.34;1844112;77;27483;-83
2020/12/28 08:37:58;;;;;;;4.30;2.40;;;;;;;6.48;67.07;94716.47;1837793;77;26187;-82
2020/12/28 08:40:26;;;;;;;1.95;1.62;;;;;;;6.54;67.02;94715.45;1835978;77;25749;-83
2020/12/28 08:42:58;;;;;;;2.52;2.02;;;;;;;6.56;66.66;94721.38;1835509;77;25732;-82
2020/12/28 08:45:28;;;;;;;3.08;1.98;;;;;;;6.59;66.58;94703.46;1837734;77;25792;-83
2020/12/28 08:47:59;;;;;;;3.52;2.40;;;;;;;6.73;66.40;94708.70;1836595;77;27498;-87
2020/12/28 08:50:34;;;;;;;2.60;1.98;;;;;;;6.94;66.36;94716.94;1827649;77;25701;-84
2020/12/28 08:53:01;;;;;;;1.72;1.62;;;;;;;7.17;66.17;94721.45;1819057;77;25777;-82
2020/12/28 08:55:28;;;;;;;1.60;1.50;;;;;;;7.34;65.74;94713.28;1838727;77;26433;-83
2020/12/28 08:57:59;;;;;;;1.80;1.30;;;;;;;7.49;65.53;94697.27;1817920;77;25721;-83
2020/12/28 09:00:28;;;;;;;3.12;1.55;;;;;;;7.64;65.26;94694.42;1827163;77;27467;-85
2020/12/28 09:02:58;;;;;;;1.90;1.60;;;;;;;7.78;64.86;94694.25;1841111;77;25709;-84
2020/12/28 09:05:28;;;;;;;1.80;1.50;;;;;;;7.97;64.74;94679.30;1850019;77;25736;-85
2020/12/28 09:08:05;;;;;;;1.40;1.30;;;;;;;8.17;64.01;94637.77;1816806;76;25712;-87
2020/12/28 09:10:33;;;;;;;1.95;1.60;;;;;;;8.17;64.01;94637.77;1786097;78;25813;-83
2020/12/28 09:13:00;;;;;;;2.62;1.80;;;;;;;8.02;63.92;94656.52;1802301;78;27471;-84
2020/12/28 09:15:27;;;;;;;2.67;1.70;;;;;;;7.91;63.67;94655.66;1792771;78;26121;-87
2020/12/28 09:17:55;;;;;;;5.75;2.55;;;;;;;7.75;63.34;94657.98;1784850;78;25818;-85
2020/12/28 09:20:22;;;;;;;4.00;2.58;;;;;;;7.54;63.37;94650.88;1804555;78;25789;-86
2020/12/28 09:22:50;;;;;;;4.03;2.60;;;;;;;7.38;63.34;94659.36;1798317;78;25829;-83
2020/12/28 09:25:17;;;;;;;4.15;2.87;;;;;;;7.28;63.42;94666.00;1810119;78;28554;-89
2020/12/28 09:27:45;;;;;;;4.05;2.50;;;;;;;7.23;63.47;94682.08;1779247;78;25918;-91
2020/12/28 09:30:12;;;;;;;3.67;2.70;;;;;;;7.36;63.66;94676.27;1802487;78;25932;-86
2020/12/28 09:32:40;;;;;;;5.00;3.55;;;;;;;7.49;63.62;94674.99;1801904;78;26159;-84
2020/12/28 09:35:08;;;;;;;6.50;3.95;;;;;;;7.73;63.73;94664.14;1760530;78;25850;-84
2020/12/28 09:37:36;;;;;;;8.55;4.60;;;;;;;8.00;63.39;94653.27;1776234;78;27754;-85
2020/12/28 09:40:05;;;;;;;8.40;4.50;;;;;;;8.09;63.01;94647.66;1806799;78;25749;-88
2020/12/28 09:42:33;;;;;;;10.48;4.95;;;;;;;8.01;62.73;94633.94;1802460;78;25767;-85
2020/12/28 09:45:00;;;;;;;9.93;5.25;;;;;;;7.85;62.59;94645.13;1808377;78;25738;-89
2020/12/28 09:47:28;;;;;;;10.13;4.92;;;;;;;7.70;62.43;94643.73;1811261;78;25750;-88
2020/12/28 09:49:55;;;;;;;9.18;4.85;;;;;;;7.62;62.55;94652.26;1780591;78;27482;-87
2020/12/28 09:52:23;;;;;;;7.60;3.75;;;;;;;7.49;62.44;94657.02;1795303;78;26115;-88
2020/12/28 09:54:50;;;;;;;5.90;3.65;;;;;;;7.40;62.46;94653.20;1787863;78;25798;-91
2020/12/28 09:57:17;;;;;;;5.05;3.35;;;;;;;7.38;62.61;94663.91;1791114;78;26139;-86
2020/12/28 09:59:45;;;;;;;4.55;2.95;;;;;;;7.30;62.65;94662.53;1787243;78;25783;-85
2020/12/28 10:02:12;;;;;;;7.67;4.03;;;;;;;7.17;62.54;94665.64;1793302;78;27487;-87
2020/12/28 10:04:40;;;;;;;9.03;5.28;;;;;;;7.13;62.58;94671.23;1786794;78;26323;-89
2020/12/28 10:07:07;;;;;;;17.48;8.68;;;;;;;7.09;62.55;94676.33;1790405;78;25703;-91
2020/12/28 10:09:34;;;;;;;7.08;3.98;;;;;;;7.10;62.59;94668.56;1793597;78;26582;-86
2020/12/28 10:12:02;;;;;;;5.15;2.60;;;;;;;7.06;62.66;94671.47;1807558;78;25742;-88
2020/12/28 10:14:30;;;;;;;7.20;4.72;;;;;;;7.02;62.61;94673.03;1808572;78;28393;-89
2020/12/28 10:16:57;;;;;;;20.20;13.65;;;;;;;6.98;62.63;94669.79;1800470;78;25777;-87
2020/12/28 10:19:25;;;;;;;6.45;5.30;;;;;;;6.96;62.71;94667.89;1794258;78;25798;-83
2020/12/28 10:21:52;;;;;;;4.67;2.85;;;;;;;6.94;62.77;94665.98;1792530;78;25429;-85
2020/12/28 10:24:20;;;;;;;6.30;3.22;;;;;;;6.88;62.72;94663.81;1798179;78;26117;-91
2020/12/28 10:26:49;;;;;;;5.08;2.77;;;;;;;6.84;62.73;94662.16;1793533;78;27483;-84
2020/12/28 10:29:16;;;;;;;5.12;3.27;;;;;;;6.84;62.87;94646.07;1801504;78;25677;-91
2020/12/28 10:31:43;;;;;;;4.00;2.98;;;;;;;6.84;62.85;94651.97;1792429;78;25285;-84
2020/12/28 10:34:11;;;;;;;4.85;3.50;;;;;;;6.82;62.90;94658.92;1792552;78;25787;-92
2020/12/28 10:36:39;;;;;;;5.50;3.70;;;;;;;6.78;62.86;94661.82;1794608;78;25977;-86
2020/12/28 10:39:06;;;;;;;7.97;3.85;;;;;;;6.73;62.87;94657.77;1792718;78;28650;-84
2020/12/28 10:41:34;;;;;;;6.58;4.00;;;;;;;6.69;62.86;94656.66;1792505;78;25794;-85
2020/12/28 10:44:02;;;;;;;6.65;4.33;;;;;;;6.68;62.99;94655.03;1794146;78;26413;-89
2020/12/28 10:46:29;;;;;;;9.25;4.58;;;;;;;6.67;62.99;94659.30;1800390;78;26148;-89
2020/12/28 10:48:57;;;;;;;6.20;3.98;;;;;;;6.65;63.06;94659.55;1797127;78;25707;-83
2020/12/28 10:51:25;;;;;;;6.87;4.42;;;;;;;6.63;62.97;94660.36;1810322;78;28549;-89
2020/12/28 10:53:52;;;;;;;8.88;4.42;;;;;;;6.56;62.88;94658.39;1792634;78;25846;-84
2020/12/28 10:56:24;;;;;;;8.45;4.25;;;;;;;6.55;63.06;94666.16;1793495;78;25827;-85
2020/12/28 10:58:53;;;;;;;6.90;4.70;;;;;;;6.49;62.94;94665.84;1792648;78;25809;-86
2020/12/28 11:01:26;;;;;;;7.87;4.47;;;;;;;6.41;62.97;94673.78;1792627;78;25750;-84
2020/12/28 11:03:54;;;;;;;6.70;4.03;;;;;;;6.40;63.01;94676.73;1792500;78;28437;-91
2020/12/28 11:06:23;;;;;;;7.50;4.00;;;;;;;6.33;62.93;94686.81;1793856;78;25826;-87
2020/12/28 11:08:50;;;;;;;6.87;4.08;;;;;;;6.30;63.04;94683.30;1797138;78;25740;-88
2020/12/28 11:11:18;;;;;;;5.85;3.72;;;;;;;6.26;63.04;94687.02;1786687;78;25774;-87
2020/12/28 11:13:46;;;;;;;6.30;3.95;;;;;;;6.22;63.06;94679.73;1788617;78;25843;-89
2020/12/28 11:16:14;;;;;;;6.75;4.25;;;;;;;6.22;63.11;94687.77;1787478;78;28394;-83
2020/12/28 11:18:42;;;;;;;6.35;4.30;;;;;;;6.21;63.09;94694.17;1792097;78;26281;-86
2020/12/28 11:21:10;;;;;;;9.88;5.90;;;;;;;6.20;63.16;94700.59;1801698;77;26245;-85
2020/12/28 11:26:23;;;;;;;5.75;3.62;;;;;;;6.13;63.22;94728.38;1796407;79;25930;-85
2020/12/28 11:28:51;;;;;;;8.35;4.97;;;;;;;6.09;63.13;94717.88;1796370;78;28739;-86
2020/12/28 11:31:19;;;;;;;5.95;4.25;;;;;;;6.07;63.17;94729.36;1812378;78;26100;-85
2020/12/28 11:33:48;;;;;;;6.37;4.42;;;;;;;6.07;63.21;94732.04;1810907;78;25695;-86
2020/12/28 11:36:16;;;;;;;11.73;6.03;;;;;;;6.07;63.28;94734.72;1815214;78;26112;-88
2020/12/28 11:38:44;;;;;;;11.88;6.30;;;;;;;6.07;63.30;94737.92;1796571;77;25789;-87
2020/12/28 11:41:17;;;;;;;15.90;7.58;;;;;;;6.04;63.26;94739.75;1796135;78;28459;-87
2020/12/28 11:43:45;;;;;;;20.45;8.35;;;;;;;6.01;63.43;94739.74;1794860;78;25782;-86
2020/12/28 11:46:14;;;;;;;15.48;8.35;;;;;;;6.02;63.58;94744.57;1795627;78;25842;-88
2020/12/28 11:48:42;;;;;;;9.90;6.12;;;;;;;5.99;63.72;94737.83;1793552;78;25807;-86